967  
SHUS65 KGJT 172016  
FWOGJT  
 
DAILY FIRE WEATHER OBSERVATION  
NATIONAL WEATHER SERVICE GRAND JUNCTION CO  
212 PM MDT TUE OCT 17 2017  
 
STATE OF THE WEATHER (W) 1  
DRY BULB TEMPERATURE 65 DEGREES FAHRENHEIT  
RELATIVE HUMIDITY (RH) 14 PERCENT  
LIGHTNING ACTIVITY LEVEL  
(LAL - MIDNIGHT TO 2 PM) 1  
WIND DIRECTION C DEGREES (C IF CALM)  
WIND SPEED 0 MPH  
MAX TEMP (2 PM - 2 PM) 67 DEGREES FAHRENHEIT  
MIN TEMP (2 PM - 2 PM) 31 DEGREES FAHRENHEIT  
MAX RH (2 PM - 2 PM) 43 PERCENT  
MIN RH (2 PM - 2 PM) 10 PERCENT  
PCPN DURATION 0.0 HOURS  
PCPN AMT (2 PM - 2 PM) 0.0 INCHES  
LAL (2 PM - 2 PM) 1  
 

 
 
METAR KGJT 171953Z 00000KT 10SM CLR 18/M10 A3027 RMK AO2 SLP223  
T01831100  
 
CLICK HERE TO GO TO PREVIOUS BULLETINS.

The Nexlab CO Page
The Nexlab UT Page Main Text Page